Time;durP1;ratioP1;P1;durP2;ratioP2;P2;SDS_P1;SDS_P2;PMS_P1;PMS_P2;Temp;Humidity;BMP_temperature;BMP_pressure;BME280_temperature;BME280_humidity;BME280_pressure;Samples;Min_cycle;Max_cycle;Signal;HPM_P1;HPM_P2
2023/09/24 00:01:44;;;;;;;2.75;1.05;;;;;;;;;;4999760;28;20161;-70
2023/09/24 00:04:10;;;;;;;1.20;0.80;;;;;;;;;;4998978;28;20053;-73
2023/09/24 00:06:36;;;;;;;2.85;1.05;;;;;;;;;;4998601;28;20108;-72
2023/09/24 00:09:02;;;;;;;0.90;0.90;;;;;;;;;;4999615;28;20053;-71
2023/09/24 00:11:28;;;;;;;2.35;0.98;;;;;;;;;;4999072;28;20057;-71
2023/09/24 00:13:54;;;;;;;1.48;1.00;;;;;;;;;;4981547;28;20057;-71
2023/09/24 00:16:19;;;;;;;0.95;0.88;;;;;;;;;;4998350;28;20045;-71
2023/09/24 00:18:45;;;;;;;0.70;0.70;;;;;;;;;;4998615;28;20056;-71
2023/09/24 00:21:10;;;;;;;1.00;0.75;;;;;;;;;;4999253;28;20161;-71
2023/09/24 00:23:36;;;;;;;6.20;0.95;;;;;;;;;;4998877;28;20050;-72
2023/09/24 00:26:02;;;;;;;0.73;0.73;;;;;;;;;;4997446;28;20076;-72
2023/09/24 00:28:27;;;;;;;4.97;1.27;;;;;;;;;;4999639;28;20061;-72
2023/09/24 00:30:55;;;;;;;1.63;1.00;;;;;;;;;;4999501;28;20044;-72
2023/09/24 00:33:21;;;;;;;1.15;1.05;;;;;;;;;;4997313;28;20038;-72
2023/09/24 00:35:47;;;;;;;1.35;0.90;;;;;;;;;;4981241;28;20041;-72
2023/09/24 00:38:13;;;;;;;1.08;0.98;;;;;;;;;;4997617;28;20053;-70
2023/09/24 00:40:38;;;;;;;3.47;0.85;;;;;;;;;;4999602;28;20045;-72
2023/09/24 00:43:27;;;;;;;2.67;0.80;;;;;;;;;;4997679;28;20534;-72
2023/09/24 00:46:03;;;;;;;1.15;0.80;;;;;;;;;;4950950;28;20042;-71
2023/09/24 00:48:29;;;;;;;2.55;0.90;;;;;;;;;;4998482;28;20042;-72
2023/09/24 00:50:59;;;;;;;1.02;0.93;;;;;;;;;;4980977;28;20641;-71
2023/09/24 00:53:27;;;;;;;1.98;0.95;;;;;;;;;;4980806;28;20041;-72
2023/09/24 00:55:55;;;;;;;4.55;1.30;;;;;;;;;;4997513;28;20057;-71
2023/09/24 00:58:22;;;;;;;2.67;1.25;;;;;;;;;;4998428;28;20050;-72
2023/09/24 01:00:47;;;;;;;2.70;1.13;;;;;;;;;;4997616;28;20053;-72
2023/09/24 01:03:14;;;;;;;1.20;1.00;;;;;;;;;;4980221;28;20050;-72
2023/09/24 01:05:40;;;;;;;1.60;0.90;;;;;;;;;;4997376;28;20053;-71
2023/09/24 01:08:06;;;;;;;1.95;1.05;;;;;;;;;;4980881;28;20141;-70
2023/09/24 01:10:31;;;;;;;0.80;0.80;;;;;;;;;;4998363;28;20125;-71
2023/09/24 01:13:00;;;;;;;2.72;1.38;;;;;;;;;;4997356;28;20046;-71
2023/09/24 01:15:27;;;;;;;1.20;1.10;;;;;;;;;;4996023;28;20046;-71
2023/09/24 01:17:53;;;;;;;2.25;1.15;;;;;;;;;;4996379;28;20372;-71
2023/09/24 01:20:22;;;;;;;5.13;2.10;;;;;;;;;;4995552;28;20624;-72
2023/09/24 01:22:49;;;;;;;3.70;1.75;;;;;;;;;;4996672;28;20598;-72
2023/09/24 01:25:14;;;;;;;2.75;1.50;;;;;;;;;;4980087;28;20057;-71
2023/09/24 01:27:39;;;;;;;2.72;1.30;;;;;;;;;;4980991;28;20049;-71
2023/09/24 01:30:06;;;;;;;3.05;1.63;;;;;;;;;;4980938;28;20057;-71
2023/09/24 01:32:32;;;;;;;3.75;1.20;;;;;;;;;;4998217;28;20081;-72
2023/09/24 01:35:03;;;;;;;3.28;0.90;;;;;;;;;;4980577;28;20052;-72
2023/09/24 01:37:29;;;;;;;1.20;1.08;;;;;;;;;;4980036;28;20048;-71
2023/09/24 01:39:55;;;;;;;1.30;1.20;;;;;;;;;;4998779;28;20050;-70
2023/09/24 01:42:20;;;;;;;1.55;1.20;;;;;;;;;;4996840;28;20569;-71
2023/09/24 01:44:46;;;;;;;3.28;1.38;;;;;;;;;;4997848;28;20046;-70
2023/09/24 01:47:11;;;;;;;2.45;1.00;;;;;;;;;;4998187;28;20073;-71
2023/09/24 01:49:37;;;;;;;4.18;1.20;;;;;;;;;;4979836;28;20081;-73
2023/09/24 01:52:04;;;;;;;2.75;1.02;;;;;;;;;;4996806;28;20050;-72
2023/09/24 01:54:30;;;;;;;1.77;1.02;;;;;;;;;;4979956;28;20050;-72
2023/09/24 01:56:57;;;;;;;1.77;1.00;;;;;;;;;;4998515;28;20061;-72
2023/09/24 01:59:23;;;;;;;0.82;0.77;;;;;;;;;;4996307;28;20084;-72
2023/09/24 02:01:50;;;;;;;2.92;1.15;;;;;;;;;;5000390;28;20129;-72
2023/09/24 02:04:16;;;;;;;2.33;0.90;;;;;;;;;;5002044;28;20082;-72
2023/09/24 02:06:41;;;;;;;0.80;0.80;;;;;;;;;;5001493;28;20092;-72
2023/09/24 02:09:07;;;;;;;2.25;1.27;;;;;;;;;;5000699;28;20056;-72
2023/09/24 02:11:33;;;;;;;1.67;0.93;;;;;;;;;;5000013;28;20141;-72
2023/09/24 02:13:59;;;;;;;2.05;0.85;;;;;;;;;;4983885;28;20057;-72
2023/09/24 02:16:26;;;;;;;1.45;1.00;;;;;;;;;;5001193;28;20054;-72
2023/09/24 02:18:52;;;;;;;1.05;0.88;;;;;;;;;;4984095;28;20090;-72
2023/09/24 02:21:18;;;;;;;1.15;1.05;;;;;;;;;;4982991;28;20137;-72
2023/09/24 02:23:44;;;;;;;1.20;1.10;;;;;;;;;;4986226;28;20070;-72
2023/09/24 02:26:10;;;;;;;1.83;1.20;;;;;;;;;;4980702;28;20510;-71
2023/09/24 02:28:39;;;;;;;1.33;1.23;;;;;;;;;;4996907;28;20149;-72
2023/09/24 02:31:06;;;;;;;1.85;0.98;;;;;;;;;;4995676;28;20111;-73
2023/09/24 02:33:31;;;;;;;1.10;1.10;;;;;;;;;;4999619;28;20205;-72
2023/09/24 02:35:56;;;;;;;2.22;1.30;;;;;;;;;;4994324;28;20062;-73
2023/09/24 02:38:24;;;;;;;5.57;1.40;;;;;;;;;;4990298;28;20083;-72
2023/09/24 02:40:50;;;;;;;1.50;1.08;;;;;;;;;;4997097;28;20051;-71
2023/09/24 02:43:15;;;;;;;2.45;1.00;;;;;;;;;;4979466;28;20051;-71
2023/09/24 02:45:41;;;;;;;1.30;1.05;;;;;;;;;;4980599;28;20078;-72
2023/09/24 02:48:06;;;;;;;2.13;1.27;;;;;;;;;;4979961;28;20145;-72
2023/09/24 02:50:32;;;;;;;1.80;1.00;;;;;;;;;;4979977;28;20117;-71
2023/09/24 02:52:59;;;;;;;1.08;1.00;;;;;;;;;;4980516;28;20069;-72
2023/09/24 02:55:28;;;;;;;1.67;1.00;;;;;;;;;;4979242;28;20500;-71
2023/09/24 02:57:55;;;;;;;1.05;1.00;;;;;;;;;;4981384;28;20522;-72
2023/09/24 03:00:41;;;;;;;1.23;1.02;;;;;;;;;;4979638;28;20056;-72
2023/09/24 03:03:09;;;;;;;1.42;1.13;;;;;;;;;;4979809;28;20140;-72
2023/09/24 03:05:35;;;;;;;2.97;1.30;;;;;;;;;;4979327;28;20061;-71
2023/09/24 03:08:02;;;;;;;1.77;1.23;;;;;;;;;;4979964;28;20042;-71
2023/09/24 03:10:30;;;;;;;0.98;0.90;;;;;;;;;;4996018;28;20050;-72
2023/09/24 03:12:57;;;;;;;2.33;1.05;;;;;;;;;;4979477;28;20042;-72
2023/09/24 03:15:26;;;;;;;1.73;1.10;;;;;;;;;;4979171;28;20050;-72
2023/09/24 03:17:54;;;;;;;1.30;1.20;;;;;;;;;;4981319;28;20104;-72
2023/09/24 03:20:20;;;;;;;2.33;1.17;;;;;;;;;;4995798;28;20082;-71
2023/09/24 03:22:54;;;;;;;2.13;1.27;;;;;;;;;;4979143;28;20080;-72
2023/09/24 03:25:24;;;;;;;1.40;1.30;;;;;;;;;;4979009;28;20043;-72
2023/09/24 03:28:02;;;;;;;1.40;1.30;;;;;;;;;;4979563;28;20143;-72
2023/09/24 03:30:29;;;;;;;1.65;1.42;;;;;;;;;;4979472;28;20042;-71
2023/09/24 03:32:55;;;;;;;1.30;1.20;;;;;;;;;;4978901;28;20072;-72
2023/09/24 03:35:25;;;;;;;2.15;1.13;;;;;;;;;;4989910;28;20396;-72
2023/09/24 03:37:52;;;;;;;2.15;1.33;;;;;;;;;;4978481;28;20146;-72
2023/09/24 03:40:19;;;;;;;1.73;1.40;;;;;;;;;;4978910;28;20468;-71
2023/09/24 03:42:47;;;;;;;2.50;1.40;;;;;;;;;;4978811;28;20274;-71
2023/09/24 03:45:14;;;;;;;1.55;1.20;;;;;;;;;;4978673;28;20136;-72
2023/09/24 03:47:40;;;;;;;3.58;1.85;;;;;;;;;;4982083;28;20525;-72
2023/09/24 03:50:10;;;;;;;2.42;1.30;;;;;;;;;;4975433;28;20120;-72
2023/09/24 03:52:37;;;;;;;1.92;1.42;;;;;;;;;;4963224;28;20073;-72
2023/09/24 03:55:04;;;;;;;1.08;1.08;;;;;;;;;;4977611;28;20049;-71
2023/09/24 03:57:30;;;;;;;1.35;1.25;;;;;;;;;;4997018;28;20517;-72
2023/09/24 03:59:56;;;;;;;1.15;1.10;;;;;;;;;;4998670;28;20077;-71
2023/09/24 04:02:26;;;;;;;2.05;1.20;;;;;;;;;;4999632;28;20068;-72
2023/09/24 04:04:52;;;;;;;2.47;1.25;;;;;;;;;;4998910;28;20041;-72
2023/09/24 04:07:17;;;;;;;3.33;1.33;;;;;;;;;;4980315;28;20196;-71
2023/09/24 04:09:43;;;;;;;2.47;1.48;;;;;;;;;;4998527;28;20077;-72
2023/09/24 04:12:09;;;;;;;2.08;1.63;;;;;;;;;;4999363;28;20561;-72
2023/09/24 04:14:36;;;;;;;3.50;1.52;;;;;;;;;;4999963;28;20041;-72
2023/09/24 04:17:02;;;;;;;3.70;1.52;;;;;;;;;;4999566;28;20037;-72
2023/09/24 04:19:31;;;;;;;4.32;2.15;;;;;;;;;;4997960;28;20053;-72
2023/09/24 04:21:56;;;;;;;1.58;1.48;;;;;;;;;;4999521;28;21017;-71
2023/09/24 04:24:22;;;;;;;3.22;1.40;;;;;;;;;;4998520;28;20054;-72
2023/09/24 04:26:47;;;;;;;1.42;1.33;;;;;;;;;;4981853;28;20042;-72
2023/09/24 04:29:15;;;;;;;2.70;1.52;;;;;;;;;;4997431;28;20445;-72
2023/09/24 04:31:42;;;;;;;2.17;1.27;;;;;;;;;;4998732;28;20300;-72
2023/09/24 04:34:09;;;;;;;1.70;1.60;;;;;;;;;;4998951;28;20041;-72
2023/09/24 04:36:35;;;;;;;2.60;1.45;;;;;;;;;;4999100;28;20088;-71
2023/09/24 04:39:02;;;;;;;1.55;1.45;;;;;;;;;;4999097;28;20489;-71
2023/09/24 04:41:27;;;;;;;1.88;1.30;;;;;;;;;;4997815;28;20041;-72
2023/09/24 04:43:53;;;;;;;1.48;1.30;;;;;;;;;;4981284;28;20061;-71
2023/09/24 04:46:18;;;;;;;1.80;1.40;;;;;;;;;;4998858;28;20426;-72
2023/09/24 04:48:43;;;;;;;3.20;1.58;;;;;;;;;;4998490;28;20045;-71
2023/09/24 04:51:10;;;;;;;2.97;1.50;;;;;;;;;;4998465;28;20050;-72
2023/09/24 04:53:36;;;;;;;1.40;1.30;;;;;;;;;;4977893;28;20042;-72
2023/09/24 04:56:06;;;;;;;2.88;1.45;;;;;;;;;;4978046;28;20085;-72
2023/09/24 04:58:32;;;;;;;1.40;1.30;;;;;;;;;;4979357;28;20042;-72
2023/09/24 05:01:07;;;;;;;2.15;1.40;;;;;;;;;;4975843;28;20049;-73
2023/09/24 05:03:37;;;;;;;1.73;1.60;;;;;;;;;;4979285;28;20136;-72
2023/09/24 05:06:05;;;;;;;1.42;1.30;;;;;;;;;;4979332;28;20050;-72
2023/09/24 05:08:32;;;;;;;5.32;1.40;;;;;;;;;;4979201;28;20054;-72
2023/09/24 05:10:59;;;;;;;1.42;1.33;;;;;;;;;;4979875;28;20517;-73
2023/09/24 05:13:24;;;;;;;2.33;1.30;;;;;;;;;;4976566;28;20821;-72
2023/09/24 05:15:53;;;;;;;1.83;1.42;;;;;;;;;;4977667;28;20522;-72
2023/09/24 05:18:22;;;;;;;2.20;1.70;;;;;;;;;;4979137;28;20115;-72
2023/09/24 05:20:48;;;;;;;1.40;1.30;;;;;;;;;;4979441;28;20045;-72
2023/09/24 05:23:13;;;;;;;1.52;1.42;;;;;;;;;;4978529;28;20050;-71
2023/09/24 05:25:40;;;;;;;1.90;1.40;;;;;;;;;;4993681;28;20076;-72
2023/09/24 05:28:06;;;;;;;1.45;1.35;;;;;;;;;;4977461;28;20054;-72
2023/09/24 05:30:31;;;;;;;1.75;1.65;;;;;;;;;;4961780;28;20105;-72
2023/09/24 05:32:57;;;;;;;1.88;1.60;;;;;;;;;;4977330;28;20039;-73
2023/09/24 05:35:23;;;;;;;2.22;1.63;;;;;;;;;;4976340;28;20068;-71
2023/09/24 05:37:48;;;;;;;2.00;1.90;;;;;;;;;;4982480;28;20057;-72
2023/09/24 05:40:14;;;;;;;2.47;2.03;;;;;;;;;;4982424;28;20057;-73
2023/09/24 05:42:41;;;;;;;2.53;1.75;;;;;;;;;;4981775;28;20050;-72
2023/09/24 05:45:07;;;;;;;1.55;1.40;;;;;;;;;;4997346;28;20046;-72
2023/09/24 05:47:33;;;;;;;3.47;1.40;;;;;;;;;;4981684;28;20042;-71
2023/09/24 05:49:59;;;;;;;4.63;1.45;;;;;;;;;;4981650;28;20412;-73
2023/09/24 05:52:25;;;;;;;1.90;1.30;;;;;;;;;;4982775;28;20140;-71
2023/09/24 05:54:51;;;;;;;2.13;1.10;;;;;;;;;;4982645;28;20882;-72
2023/09/24 05:57:17;;;;;;;4.55;1.40;;;;;;;;;;4980825;28;20121;-71
2023/09/24 05:59:43;;;;;;;1.95;1.10;;;;;;;;;;4983028;28;20076;-73
2023/09/24 06:02:08;;;;;;;1.45;1.35;;;;;;;;;;4982812;28;20621;-72
2023/09/24 06:04:34;;;;;;;1.40;1.30;;;;;;;;;;4980583;28;20062;-72
2023/09/24 06:06:59;;;;;;;2.90;1.05;;;;;;;;;;4982369;28;20105;-73
2023/09/24 06:09:24;;;;;;;1.60;1.08;;;;;;;;;;4980990;28;20038;-73
2023/09/24 06:11:50;;;;;;;1.30;1.10;;;;;;;;;;4982004;28;20057;-74
2023/09/24 06:14:16;;;;;;;1.58;1.13;;;;;;;;;;4981626;28;20570;-74
2023/09/24 06:16:41;;;;;;;1.92;1.05;;;;;;;;;;4981804;28;20042;-74
2023/09/24 06:19:07;;;;;;;1.20;1.10;;;;;;;;;;4981476;28;20161;-74
2023/09/24 06:21:32;;;;;;;1.92;1.10;;;;;;;;;;4980594;28;20050;-74
2023/09/24 06:23:58;;;;;;;1.35;1.20;;;;;;;;;;4982005;28;20050;-74
2023/09/24 06:26:24;;;;;;;3.88;1.30;;;;;;;;;;4981709;28;20042;-74
2023/09/24 06:28:50;;;;;;;2.00;1.50;;;;;;;;;;4981639;28;20046;-74
2023/09/24 06:31:15;;;;;;;2.65;1.40;;;;;;;;;;4955485;28;20100;-75
2023/09/24 06:33:41;;;;;;;2.95;1.42;;;;;;;;;;4979399;28;20050;-74
2023/09/24 06:36:09;;;;;;;1.45;1.35;;;;;;;;;;4979796;28;20117;-74
2023/09/24 06:38:35;;;;;;;1.98;1.17;;;;;;;;;;4979716;28;20073;-74
2023/09/24 06:41:02;;;;;;;2.53;1.13;;;;;;;;;;4977555;28;20949;-74
2023/09/24 06:43:28;;;;;;;2.38;1.20;;;;;;;;;;4977643;28;20491;-74
2023/09/24 06:45:54;;;;;;;1.35;1.15;;;;;;;;;;4978851;28;20042;-74
2023/09/24 06:48:23;;;;;;;1.73;1.30;;;;;;;;;;4979190;28;20046;-74
2023/09/24 06:50:50;;;;;;;2.78;1.20;;;;;;;;;;4979480;28;20378;-74
2023/09/24 06:53:15;;;;;;;1.27;1.10;;;;;;;;;;4976821;28;20706;-73
2023/09/24 06:55:42;;;;;;;1.40;1.30;;;;;;;;;;4978788;28;20126;-74
2023/09/24 06:58:08;;;;;;;2.13;1.20;;;;;;;;;;4978900;28;20050;-74
2023/09/24 07:00:33;;;;;;;2.20;1.13;;;;;;;;;;4979435;28;20118;-74
2023/09/24 07:02:59;;;;;;;2.80;1.23;;;;;;;;;;4977598;28;20054;-72
2023/09/24 07:05:26;;;;;;;1.35;1.10;;;;;;;;;;4976984;28;20443;-72
2023/09/24 07:07:51;;;;;;;1.70;1.00;;;;;;;;;;4977806;28;20073;-75
2023/09/24 07:10:17;;;;;;;1.73;1.20;;;;;;;;;;4976204;28;20080;-74
2023/09/24 07:12:43;;;;;;;2.08;1.10;;;;;;;;;;4960407;28;20093;-72
2023/09/24 07:15:09;;;;;;;2.28;1.10;;;;;;;;;;4993543;28;20054;-73
2023/09/24 07:17:35;;;;;;;1.90;1.25;;;;;;;;;;4960019;28;20601;-74
2023/09/24 07:20:01;;;;;;;2.03;1.20;;;;;;;;;;4978545;28;20048;-72
2023/09/24 07:22:26;;;;;;;6.35;1.00;;;;;;;;;;4977806;28;20421;-75
2023/09/24 07:24:53;;;;;;;4.22;1.10;;;;;;;;;;4976552;28;20043;-73
2023/09/24 07:27:19;;;;;;;2.92;1.15;;;;;;;;;;4978414;28;20154;-74
2023/09/24 07:29:45;;;;;;;2.72;0.90;;;;;;;;;;4978015;28;20511;-74
2023/09/24 07:32:11;;;;;;;2.90;1.15;;;;;;;;;;4979189;28;20148;-71
2023/09/24 07:34:36;;;;;;;1.25;1.10;;;;;;;;;;4976874;28;21194;-73
2023/09/24 07:37:03;;;;;;;2.70;1.20;;;;;;;;;;4977845;28;20136;-73
2023/09/24 07:39:29;;;;;;;3.90;1.10;;;;;;;;;;4976382;28;20050;-75
2023/09/24 07:41:56;;;;;;;4.03;1.40;;;;;;;;;;4976350;28;20053;-75
2023/09/24 07:44:22;;;;;;;1.20;1.10;;;;;;;;;;4977211;28;20054;-74
2023/09/24 07:46:48;;;;;;;1.38;1.20;;;;;;;;;;4974154;28;20565;-73
2023/09/24 07:49:17;;;;;;;4.95;1.20;;;;;;;;;;4976649;28;20164;-73
2023/09/24 07:51:43;;;;;;;1.20;1.10;;;;;;;;;;4977042;28;20133;-73
2023/09/24 07:54:08;;;;;;;1.20;1.10;;;;;;;;;;4960538;28;20053;-73
2023/09/24 07:56:34;;;;;;;1.88;1.00;;;;;;;;;;4984453;28;20072;-72
2023/09/24 07:59:02;;;;;;;4.95;1.10;;;;;;;;;;4990426;28;20088;-73
2023/09/24 08:01:28;;;;;;;2.05;1.10;;;;;;;;;;4974423;28;20038;-73
2023/09/24 08:03:53;;;;;;;1.25;1.10;;;;;;;;;;4978037;28;20128;-73
2023/09/24 08:06:18;;;;;;;1.63;1.45;;;;;;;;;;4975970;28;20050;-73
2023/09/24 08:08:44;;;;;;;1.58;1.08;;;;;;;;;;4977624;28;20042;-72
2023/09/24 08:11:09;;;;;;;4.32;1.45;;;;;;;;;;4976983;28;20050;-72
2023/09/24 08:13:35;;;;;;;1.35;1.25;;;;;;;;;;4977391;28;20503;-72
2023/09/24 08:16:00;;;;;;;2.20;1.08;;;;;;;;;;4978021;28;20046;-73
2023/09/24 08:18:26;;;;;;;3.13;1.10;;;;;;;;;;4977600;28;20081;-73
2023/09/24 08:20:55;;;;;;;1.20;1.00;;;;;;;;;;4977145;28;20034;-72
2023/09/24 08:23:21;;;;;;;2.03;1.08;;;;;;;;;;4976882;28;20100;-72
2023/09/24 08:25:51;;;;;;;1.58;1.20;;;;;;;;;;4976188;28;20081;-72
2023/09/24 08:28:17;;;;;;;3.03;1.42;;;;;;;;;;4976475;28;20058;-72
2023/09/24 08:30:43;;;;;;;3.65;1.30;;;;;;;;;;4976660;28;20053;-73
2023/09/24 08:33:09;;;;;;;1.80;0.90;;;;;;;;;;4979000;28;20046;-73
2023/09/24 08:35:39;;;;;;;1.77;1.25;;;;;;;;;;4978344;28;20060;-72
2023/09/24 08:38:05;;;;;;;2.88;1.30;;;;;;;;;;4987908;28;20070;-73
2023/09/24 08:40:31;;;;;;;2.58;1.20;;;;;;;;;;4969097;28;20077;-72
2023/09/24 08:42:58;;;;;;;3.60;1.30;;;;;;;;;;4994325;28;20582;-73
2023/09/24 08:45:28;;;;;;;2.30;1.27;;;;;;;;;;4997322;28;20054;-72
2023/09/24 08:47:54;;;;;;;2.72;1.10;;;;;;;;;;4998031;28;20053;-73
2023/09/24 08:50:20;;;;;;;3.00;1.50;;;;;;;;;;4998533;28;20077;-71
2023/09/24 08:52:46;;;;;;;1.50;1.30;;;;;;;;;;4998142;28;20085;-72
2023/09/24 08:55:13;;;;;;;1.10;1.00;;;;;;;;;;4998147;28;20151;-74
2023/09/24 08:57:40;;;;;;;1.52;1.00;;;;;;;;;;4997971;28;20046;-72
2023/09/24 09:00:09;;;;;;;2.05;1.15;;;;;;;;;;4998416;28;20037;-75
2023/09/24 09:02:35;;;;;;;3.25;1.10;;;;;;;;;;4997646;28;20046;-73
2023/09/24 09:05:04;;;;;;;3.05;1.00;;;;;;;;;;4997566;28;20055;-71
2023/09/24 09:07:30;;;;;;;2.55;1.27;;;;;;;;;;4997644;28;20057;-71
2023/09/24 09:09:59;;;;;;;2.42;1.38;;;;;;;;;;4997503;28;21062;-72
2023/09/24 09:12:28;;;;;;;2.40;1.02;;;;;;;;;;4998226;28;20068;-72
2023/09/24 09:14:55;;;;;;;2.97;0.98;;;;;;;;;;4997577;28;20049;-73
2023/09/24 09:17:24;;;;;;;2.95;1.17;;;;;;;;;;4997405;28;20046;-73
2023/09/24 09:19:57;;;;;;;1.42;1.10;;;;;;;;;;4996899;28;20885;-73
2023/09/24 09:22:27;;;;;;;3.33;1.38;;;;;;;;;;4997997;28;20510;-73
2023/09/24 09:25:09;;;;;;;3.85;1.30;;;;;;;;;;4997637;28;20045;-72
2023/09/24 09:27:36;;;;;;;2.63;1.05;;;;;;;;;;4996703;28;20064;-72
2023/09/24 09:30:22;;;;;;;3.38;0.90;;;;;;;;;;4997826;28;20122;-72
2023/09/24 09:32:48;;;;;;;2.92;1.08;;;;;;;;;;4997290;28;20064;-73
2023/09/24 09:35:15;;;;;;;1.42;1.20;;;;;;;;;;4996806;28;20697;-71
2023/09/24 09:37:42;;;;;;;1.08;0.98;;;;;;;;;;4995902;28;20442;-73
2023/09/24 09:40:09;;;;;;;1.92;1.10;;;;;;;;;;5013179;28;20064;-73
2023/09/24 09:42:37;;;;;;;0.80;0.73;;;;;;;;;;4997801;28;20050;-72
2023/09/24 09:45:07;;;;;;;5.00;1.05;;;;;;;;;;4996734;28;20046;-71
2023/09/24 09:47:37;;;;;;;1.75;1.08;;;;;;;;;;4996321;28;20112;-71
2023/09/24 09:50:04;;;;;;;2.95;1.10;;;;;;;;;;4997787;28;20046;-73
2023/09/24 09:52:37;;;;;;;1.98;1.20;;;;;;;;;;4998359;28;20116;-72
2023/09/24 09:55:05;;;;;;;1.80;1.00;;;;;;;;;;4998332;28;20091;-71
2023/09/24 09:57:34;;;;;;;2.90;1.40;;;;;;;;;;4997231;28;20157;-71
2023/09/24 10:00:02;;;;;;;1.48;1.35;;;;;;;;;;4997368;28;20112;-71
2023/09/24 10:02:43;;;;;;;3.05;1.27;;;;;;;;;;4998255;28;20054;-72
2023/09/24 10:05:11;;;;;;;18.73;15.85;;;;;;;;;;4997683;28;20046;-72
2023/09/24 10:07:37;;;;;;;10.35;5.20;;;;;;;;;;4997086;28;20045;-72
2023/09/24 10:10:31;;;;;;;2.25;1.70;;;;;;;;;;4996930;28;20042;-72
2023/09/24 10:13:02;;;;;;;2.03;1.30;;;;;;;;;;4998132;28;20056;-71
2023/09/24 10:15:30;;;;;;;1.95;0.90;;;;;;;;;;4997687;28;20046;-71
2023/09/24 10:18:11;;;;;;;1.13;0.93;;;;;;;;;;4996777;28;20096;-72
2023/09/24 10:20:48;;;;;;;2.75;0.70;;;;;;;;;;4997365;28;20510;-72
2023/09/24 10:23:29;;;;;;;1.92;0.80;;;;;;;;;;5001839;28;20049;-72
2023/09/24 10:25:59;;;;;;;1.25;1.00;;;;;;;;;;4983299;28;20038;-72
2023/09/24 10:28:48;;;;;;;2.00;0.85;;;;;;;;;;5016235;28;20173;-72
2023/09/24 10:31:16;;;;;;;1.48;0.85;;;;;;;;;;4999493;28;20065;-72
2023/09/24 10:34:02;;;;;;;2.35;0.85;;;;;;;;;;5000687;28;20399;-72
2023/09/24 10:36:37;;;;;;;2.03;1.00;;;;;;;;;;5001259;28;20070;-73
2023/09/24 10:39:05;;;;;;;;;;;;;;;;;;5001965;28;20125;-73
2023/09/24 10:41:33;;;;;;;1.58;0.85;;;;;;;;;;5000620;28;20004;-74
2023/09/24 10:44:27;;;;;;;1.80;0.70;;;;;;;;;;5000156;28;20045;-73
2023/09/24 10:46:53;;;;;;;1.20;0.70;;;;;;;;;;5001123;28;20045;-73
2023/09/24 10:49:24;;;;;;;2.15;0.82;;;;;;;;;;5000211;28;20053;-74
2023/09/24 10:51:58;;;;;;;1.05;0.70;;;;;;;;;;5001474;28;20111;-73
2023/09/24 10:54:23;;;;;;;2.95;0.70;;;;;;;;;;4999780;28;20498;-73
2023/09/24 10:56:49;;;;;;;3.05;0.85;;;;;;;;;;4998254;28;20041;-73
2023/09/24 10:59:15;;;;;;;1.35;0.80;;;;;;;;;;5000937;28;20049;-74
2023/09/24 11:01:44;;;;;;;1.35;0.88;;;;;;;;;;5000111;28;20053;-73
2023/09/24 11:04:10;;;;;;;1.23;0.93;;;;;;;;;;4999666;28;20054;-72
2023/09/24 11:06:36;;;;;;;1.42;0.70;;;;;;;;;;5000626;28;20048;-72
2023/09/24 11:09:15;;;;;;;2.08;0.80;;;;;;;;;;5001020;28;20041;-73
2023/09/24 11:11:41;;;;;;;3.92;0.68;;;;;;;;;;4999719;28;20054;-73
2023/09/24 11:14:24;;;;;;;1.50;0.63;;;;;;;;;;5000992;28;20042;-74
2023/09/24 11:16:51;;;;;;;1.27;0.90;;;;;;;;;;4999816;28;20050;-73
2023/09/24 11:19:43;;;;;;;1.25;1.10;;;;;;;;;;5000200;28;20064;-73
2023/09/24 11:22:34;;;;;;;0.75;0.75;;;;;;;;;;4997976;28;20058;-74
2023/09/24 11:25:13;;;;;;;2.83;0.80;;;;;;;;;;4997570;28;20048;-74
2023/09/24 11:27:48;;;;;;;1.00;0.95;;;;;;;;;;5010454;28;20136;-73
2023/09/24 11:30:15;;;;;;;1.25;0.68;;;;;;;;;;4993969;28;20168;-72
2023/09/24 11:32:42;;;;;;;1.58;0.73;;;;;;;;;;4994947;28;20045;-72
2023/09/24 11:35:10;;;;;;;0.85;0.60;;;;;;;;;;5003288;28;20135;-72
2023/09/24 11:37:52;;;;;;;1.35;0.80;;;;;;;;;;4987953;28;20058;-72
2023/09/24 11:40:21;;;;;;;1.95;0.63;;;;;;;;;;5010611;28;20778;-72
2023/09/24 11:42:52;;;;;;;0.70;0.70;;;;;;;;;;4980368;28;20174;-72
2023/09/24 11:45:33;;;;;;;2.08;0.77;;;;;;;;;;4997214;28;20149;-72
2023/09/24 11:47:59;;;;;;;1.10;0.60;;;;;;;;;;4981464;28;20145;-71
2023/09/24 11:50:24;;;;;;;1.10;0.70;;;;;;;;;;4997955;28;20156;-72
2023/09/24 11:52:50;;;;;;;2.20;0.80;;;;;;;;;;4996212;28;20062;-72
2023/09/24 11:55:17;;;;;;;4.05;0.93;;;;;;;;;;4998954;28;20038;-72
2023/09/24 11:57:42;;;;;;;1.67;1.05;;;;;;;;;;4998058;28;20141;-72
2023/09/24 12:00:08;;;;;;;1.08;0.88;;;;;;;;;;4997939;28;20054;-72
2023/09/24 12:02:37;;;;;;;0.85;0.75;;;;;;;;;;4998422;28;20534;-72
2023/09/24 12:05:03;;;;;;;3.15;0.80;;;;;;;;;;4997004;28;20112;-72
2023/09/24 12:07:31;;;;;;;2.13;0.80;;;;;;;;;;4997111;28;20151;-73
2023/09/24 12:09:57;;;;;;;1.77;0.90;;;;;;;;;;4998461;28;20049;-72
2023/09/24 12:12:23;;;;;;;1.00;0.90;;;;;;;;;;4997742;28;20093;-72
2023/09/24 12:14:48;;;;;;;0.73;0.65;;;;;;;;;;4997645;28;20115;-73
2023/09/24 12:17:14;;;;;;;1.52;0.73;;;;;;;;;;4997559;28;20049;-72
2023/09/24 12:19:39;;;;;;;1.00;0.60;;;;;;;;;;4996840;28;20049;-73
2023/09/24 12:22:04;;;;;;;1.15;0.88;;;;;;;;;;4997857;28;20859;-73
2023/09/24 12:24:30;;;;;;;0.73;0.60;;;;;;;;;;4997617;28;20142;-73
2023/09/24 12:26:55;;;;;;;2.30;0.90;;;;;;;;;;4995017;28;20045;-73
2023/09/24 12:29:21;;;;;;;1.45;0.90;;;;;;;;;;4980811;28;20146;-74
2023/09/24 12:31:46;;;;;;;0.85;0.80;;;;;;;;;;4994187;28;20080;-73
2023/09/24 12:34:12;;;;;;;1.52;0.80;;;;;;;;;;4975904;28;20650;-72
2023/09/24 12:36:37;;;;;;;1.20;0.80;;;;;;;;;;4978222;28;20046;-73
2023/09/24 12:39:02;;;;;;;1.67;0.80;;;;;;;;;;4978378;28;20046;-72
2023/09/24 12:41:28;;;;;;;5.10;0.95;;;;;;;;;;4976020;28;20525;-72
2023/09/24 12:43:55;;;;;;;2.17;0.82;;;;;;;;;;4976881;28;20120;-72
2023/09/24 12:46:20;;;;;;;3.28;0.95;;;;;;;;;;4977440;28;20056;-72
2023/09/24 12:48:46;;;;;;;2.78;1.20;;;;;;;;;;4977981;28;20467;-72
2023/09/24 12:51:11;;;;;;;1.65;0.88;;;;;;;;;;4977762;28;20494;-72
2023/09/24 12:53:40;;;;;;;2.88;0.80;;;;;;;;;;4974896;28;20053;-72
2023/09/24 12:56:06;;;;;;;2.58;0.93;;;;;;;;;;4976893;28;20135;-72
2023/09/24 12:58:31;;;;;;;1.50;0.80;;;;;;;;;;4977168;28;20777;-73
2023/09/24 13:00:57;;;;;;;2.15;0.70;;;;;;;;;;4978247;28;20046;-72
2023/09/24 13:03:22;;;;;;;2.20;0.95;;;;;;;;;;4976550;28;20054;-72
2023/09/24 13:05:48;;;;;;;1.30;0.88;;;;;;;;;;4976936;28;20054;-73
2023/09/24 13:08:13;;;;;;;2.50;0.93;;;;;;;;;;4992470;28;20052;-73
2023/09/24 13:10:39;;;;;;;2.05;0.98;;;;;;;;;;4977662;28;20038;-73
2023/09/24 13:13:05;;;;;;;1.15;0.77;;;;;;;;;;4977828;28;20129;-72
2023/09/24 13:15:31;;;;;;;2.25;0.80;;;;;;;;;;4976653;28;20042;-72
2023/09/24 13:17:57;;;;;;;0.73;0.73;;;;;;;;;;4976646;28;20042;-72
2023/09/24 13:20:23;;;;;;;1.27;0.82;;;;;;;;;;4977303;28;20390;-72
2023/09/24 13:22:49;;;;;;;2.20;0.75;;;;;;;;;;4976227;28;20074;-73
2023/09/24 13:25:14;;;;;;;2.65;1.27;;;;;;;;;;4975925;28;20052;-72
2023/09/24 13:27:40;;;;;;;0.90;0.63;;;;;;;;;;4974564;28;20054;-71
2023/09/24 13:30:07;;;;;;;0.65;0.65;;;;;;;;;;4976593;28;20053;-72
2023/09/24 13:32:33;;;;;;;1.45;0.93;;;;;;;;;;4976886;28;20038;-72
2023/09/24 13:35:03;;;;;;;2.05;1.10;;;;;;;;;;4976821;28;20053;-72
2023/09/24 13:37:29;;;;;;;0.77;0.77;;;;;;;;;;4976757;28;20077;-72
2023/09/24 13:39:55;;;;;;;0.70;0.70;;;;;;;;;;4975847;28;20077;-72
2023/09/24 13:42:20;;;;;;;0.98;0.90;;;;;;;;;;4976282;28;20050;-72
2023/09/24 13:44:46;;;;;;;0.95;0.80;;;;;;;;;;4974184;28;20054;-72
2023/09/24 13:47:15;;;;;;;3.00;1.20;;;;;;;;;;4975606;28;20050;-72
2023/09/24 13:49:40;;;;;;;3.88;1.20;;;;;;;;;;4973906;28;20053;-72
2023/09/24 13:52:06;;;;;;;4.72;0.75;;;;;;;;;;4975733;28;20049;-72
2023/09/24 13:54:33;;;;;;;2.05;0.90;;;;;;;;;;4974817;28;20042;-72
2023/09/24 13:56:58;;;;;;;1.55;1.20;;;;;;;;;;4977643;28;20046;-72
2023/09/24 13:59:24;;;;;;;1.15;0.85;;;;;;;;;;4979149;28;20046;-71
2023/09/24 14:01:49;;;;;;;1.33;0.85;;;;;;;;;;4978198;28;20058;-72
2023/09/24 14:04:15;;;;;;;3.97;0.90;;;;;;;;;;4978061;28;20066;-71
2023/09/24 14:06:42;;;;;;;0.70;0.70;;;;;;;;;;4978840;28;20054;-72
2023/09/24 14:14:36;;;;;;;1.67;0.90;;;;;;;;;;4981049;28;20038;-72
2023/09/24 14:17:01;;;;;;;1.65;0.73;;;;;;;;;;4979719;28;20165;-74
2023/09/24 14:19:27;;;;;;;0.93;0.70;;;;;;;;;;4980301;28;21068;-73
2023/09/24 14:21:52;;;;;;;0.98;0.77;;;;;;;;;;4980900;28;22233;-72
2023/09/24 14:24:18;;;;;;;0.80;0.70;;;;;;;;;;4978321;28;20061;-72
2023/09/24 14:26:43;;;;;;;0.82;0.73;;;;;;;;;;4980133;28;20054;-73
2023/09/24 14:29:09;;;;;;;2.40;0.90;;;;;;;;;;4980369;28;20137;-72
2023/09/24 14:31:34;;;;;;;1.58;0.75;;;;;;;;;;4979880;28;20046;-72
2023/09/24 14:34:00;;;;;;;3.90;0.88;;;;;;;;;;4979614;28;20085;-73
2023/09/24 14:36:25;;;;;;;2.38;0.90;;;;;;;;;;4980706;28;20057;-73
2023/09/24 14:38:51;;;;;;;1.83;0.98;;;;;;;;;;4980332;28;20570;-72
2023/09/24 14:41:16;;;;;;;2.85;0.85;;;;;;;;;;4980464;28;20050;-72
2023/09/24 14:43:42;;;;;;;1.40;1.00;;;;;;;;;;4978971;28;20062;-73
2023/09/24 14:46:08;;;;;;;0.73;0.73;;;;;;;;;;4976194;28;20058;-73
2023/09/24 14:48:34;;;;;;;2.53;1.10;;;;;;;;;;4977793;28;20077;-72
2023/09/24 14:51:01;;;;;;;2.15;0.90;;;;;;;;;;4962518;28;20038;-73